createdAt,value
2018-07-09T00:00:44.533Z,18.22
2018-07-09T00:01:44.584Z,18.15
2018-07-09T00:02:44.678Z,18.10
2018-07-09T00:03:44.684Z,18.17
2018-07-09T00:04:44.735Z,18.04
2018-07-09T00:05:44.783Z,18.03
2018-07-09T00:06:44.835Z,18.03
2018-07-09T00:07:44.917Z,18.04
2018-07-09T00:08:44.934Z,18.04
2018-07-09T00:09:44.986Z,18.00
2018-07-09T00:10:45.039Z,18.00
2018-07-09T00:11:45.084Z,18.02
2018-07-09T00:12:45.159Z,17.95
2018-07-09T00:13:45.207Z,17.97
2018-07-09T00:14:45.236Z,17.92
2018-07-09T00:15:45.287Z,17.87
2018-07-09T00:16:45.337Z,17.95
2018-07-09T00:17:45.387Z,17.91
2018-07-09T00:18:45.460Z,17.89
2018-07-09T00:19:45.487Z,17.82
2018-07-09T00:20:45.537Z,17.87
2018-07-09T00:21:45.588Z,17.85
2018-07-09T00:22:45.639Z,17.82
2018-07-09T00:23:45.734Z,17.91
2018-07-09T00:24:45.765Z,17.92
2018-07-09T00:25:45.794Z,17.84
2018-07-09T00:26:45.837Z,17.78
2018-07-09T00:27:45.888Z,17.73
2018-07-09T00:28:45.961Z,17.85
2018-07-09T00:29:45.985Z,17.76
2018-07-09T00:30:46.038Z,17.74
2018-07-09T00:31:46.087Z,17.74
2018-07-09T00:32:46.137Z,17.73
2018-07-09T00:33:46.212Z,17.67
2018-07-09T00:34:46.259Z,17.71
2018-07-09T00:35:46.285Z,17.67
2018-07-09T00:36:46.336Z,17.66
2018-07-09T00:37:46.388Z,17.67
2018-07-09T00:38:46.435Z,17.66
2018-07-09T00:39:46.516Z,17.64
2018-07-09T00:40:46.561Z,17.57
2018-07-09T00:41:46.588Z,17.59
2018-07-09T00:42:46.638Z,17.48
2018-07-09T00:43:46.685Z,17.46
2018-07-09T00:44:46.736Z,17.40
2018-07-09T00:45:46.810Z,17.47
2018-07-09T00:46:46.836Z,17.33
2018-07-09T00:47:46.884Z,17.47
2018-07-09T00:48:46.933Z,17.44
2018-07-09T00:49:46.985Z,17.36
2018-07-09T00:50:47.065Z,17.44
2018-07-09T00:51:47.084Z,17.43
2018-07-09T00:52:47.133Z,17.46
2018-07-09T00:53:47.184Z,17.46
2018-07-09T00:54:47.233Z,17.46
2018-07-09T00:55:47.309Z,17.44
2018-07-09T00:56:47.333Z,17.35
2018-07-09T00:57:47.382Z,17.38
2018-07-09T00:58:47.432Z,17.47
2018-07-09T00:59:47.481Z,17.50
2018-07-09T01:00:47.556Z,17.38
2018-07-09T01:01:47.582Z,17.40
2018-07-09T01:02:47.632Z,17.41
2018-07-09T01:03:47.682Z,17.44
2018-07-09T01:04:47.734Z,17.30
2018-07-09T01:05:47.826Z,17.29
2018-07-09T01:06:47.832Z,17.29
2018-07-09T01:07:47.880Z,17.38
2018-07-09T01:08:47.931Z,17.40
2018-07-09T01:09:47.984Z,17.36
2018-07-09T01:10:48.062Z,17.30
2018-07-09T01:11:48.078Z,17.23
2018-07-09T01:12:48.148Z,17.22
2018-07-09T01:13:48.181Z,17.11
2018-07-09T01:14:48.230Z,16.96
2018-07-09T01:15:48.302Z,16.85
2018-07-09T01:16:48.330Z,16.88
2018-07-09T01:17:48.378Z,16.92
2018-07-09T01:18:48.455Z,16.93
2018-07-09T01:19:48.478Z,16.89
2018-07-09T01:20:48.526Z,16.95
2018-07-09T01:21:48.578Z,16.95
2018-07-09T01:22:48.667Z,16.92
2018-07-09T01:23:48.676Z,16.92
2018-07-09T01:24:48.724Z,16.83
2018-07-09T01:25:48.776Z,16.88
2018-07-09T01:26:48.833Z,16.92
2018-07-09T01:27:48.906Z,16.90
2018-07-09T01:28:48.925Z,16.92
2018-07-09T01:29:48.974Z,16.81
2018-07-09T01:30:49.027Z,16.81
2018-07-09T01:31:49.075Z,16.90
2018-07-09T01:32:49.156Z,16.89
2018-07-09T01:33:49.174Z,16.88
2018-07-09T01:34:49.225Z,16.88
2018-07-09T01:35:49.273Z,16.75
2018-07-09T01:36:49.321Z,16.78
2018-07-09T01:37:49.410Z,16.68
2018-07-09T01:38:49.422Z,16.68
2018-07-09T01:39:49.469Z,16.62
2018-07-09T01:40:49.521Z,16.60
2018-07-09T01:41:49.569Z,16.67
2018-07-09T01:42:49.643Z,16.58
2018-07-09T01:43:49.669Z,16.59
2018-07-09T01:44:49.717Z,16.53
2018-07-09T01:45:49.767Z,16.50
2018-07-09T01:46:49.816Z,16.52
2018-07-09T01:47:49.891Z,16.44
2018-07-09T01:48:49.916Z,16.41
2018-07-09T01:49:49.966Z,16.53
2018-07-09T01:50:50.015Z,16.45
2018-07-09T01:51:50.063Z,16.53
2018-07-09T01:52:50.137Z,16.49
2018-07-09T01:53:50.201Z,16.56
2018-07-09T01:54:50.212Z,16.52
2018-07-09T01:55:50.261Z,16.56
2018-07-09T01:56:50.313Z,16.59
2018-07-09T01:57:50.362Z,16.48
2018-07-09T01:58:50.440Z,16.53
2018-07-09T01:59:50.462Z,16.42
2018-07-09T02:00:50.513Z,16.45
2018-07-09T02:01:50.569Z,16.45
2018-07-09T02:02:50.607Z,16.45
2018-07-09T02:03:50.688Z,16.45
2018-07-09T02:04:51.169Z,16.41
2018-07-09T02:05:50.763Z,16.44
2018-07-09T02:06:50.809Z,16.45
2018-07-09T02:07:50.853Z,16.38
2018-07-09T02:08:50.906Z,16.44
2018-07-09T02:09:51.000Z,16.41
2018-07-09T02:10:51.003Z,16.40
2018-07-09T02:11:51.054Z,16.31
2018-07-09T02:12:51.102Z,16.35
2018-07-09T02:13:51.151Z,16.37
2018-07-09T02:14:51.232Z,16.33
2018-07-09T02:15:51.252Z,16.33
2018-07-09T02:16:51.298Z,16.34
2018-07-09T02:17:51.351Z,16.23
2018-07-09T02:18:51.400Z,16.25
2018-07-09T02:19:51.490Z,16.23
2018-07-09T02:20:51.503Z,16.18
2018-07-09T02:21:51.546Z,16.25
2018-07-09T02:22:51.597Z,16.12
2018-07-09T02:23:51.643Z,16.18
2018-07-09T02:24:51.721Z,16.20
2018-07-09T02:25:51.744Z,16.18
2018-07-09T02:26:51.792Z,16.22
2018-07-09T02:27:51.841Z,16.20
2018-07-09T02:28:51.890Z,16.16
2018-07-09T02:29:51.966Z,16.18
2018-07-09T02:30:51.990Z,16.14
2018-07-09T02:31:52.073Z,16.11
2018-07-09T02:32:52.088Z,16.22
2018-07-09T02:33:52.138Z,16.15
2018-07-09T02:34:52.199Z,16.22
2018-07-09T02:35:52.260Z,16.18
2018-07-09T02:36:52.317Z,16.11
2018-07-09T02:37:52.337Z,16.01
2018-07-09T02:38:53.139Z,15.96
2018-07-09T02:39:52.433Z,16.04
2018-07-09T02:40:52.507Z,16.12
2018-07-09T02:41:52.538Z,16.00
2018-07-09T02:42:52.582Z,16.09
2018-07-09T02:43:52.630Z,16.18
2018-07-09T02:44:52.680Z,16.16
2018-07-09T02:45:52.753Z,16.14
2018-07-09T02:46:52.814Z,16.15
2018-07-09T02:47:52.829Z,16.25
2018-07-09T02:48:52.876Z,16.22
2018-07-09T02:49:52.929Z,16.09
2018-07-09T02:50:52.977Z,16.14
2018-07-09T02:51:53.065Z,16.16
2018-07-09T02:52:53.075Z,16.15
2018-07-09T02:53:53.133Z,16.14
2018-07-09T02:54:53.185Z,16.15
2018-07-09T02:55:53.222Z,16.15
2018-07-09T02:56:53.300Z,16.03
2018-07-09T02:57:53.322Z,16.01
2018-07-09T02:58:53.369Z,16.01
2018-07-09T02:59:53.418Z,16.01
2018-07-09T03:00:53.547Z,16.03
2018-07-09T03:01:53.549Z,16.06
2018-07-09T03:02:53.567Z,16.04
2018-07-09T03:03:53.615Z,16.03
2018-07-09T03:04:53.667Z,15.99
2018-07-09T03:05:53.730Z,16.00
2018-07-09T03:06:53.788Z,15.99
2018-07-09T03:07:53.814Z,16.01
2018-07-09T03:08:53.888Z,15.96
2018-07-09T03:09:53.912Z,15.89
2018-07-09T03:10:53.970Z,15.94
2018-07-09T03:11:54.027Z,15.96
2018-07-09T03:12:54.096Z,15.94
2018-07-09T03:13:54.110Z,15.89
2018-07-09T03:14:54.159Z,15.93
2018-07-09T03:15:54.206Z,15.88
2018-07-09T03:16:54.258Z,15.94
2018-07-09T03:17:54.333Z,15.88
2018-07-09T03:18:54.358Z,15.82
2018-07-09T03:19:54.403Z,15.82
2018-07-09T03:20:54.452Z,15.86
2018-07-09T03:21:54.507Z,15.85
2018-07-09T03:22:54.582Z,15.85
2018-07-09T03:23:54.599Z,15.84
2018-07-09T03:24:54.649Z,15.79
2018-07-09T03:25:54.699Z,15.89
2018-07-09T03:26:54.750Z,15.88
2018-07-09T03:27:54.827Z,15.82
2018-07-09T03:28:54.847Z,15.78
2018-07-09T03:29:54.903Z,15.84
2018-07-09T03:30:54.945Z,15.88
2018-07-09T03:31:54.994Z,15.86
2018-07-09T03:32:55.073Z,15.81
2018-07-09T03:33:55.092Z,15.79
2018-07-09T03:34:55.143Z,15.79
2018-07-09T03:35:55.191Z,15.79
2018-07-09T03:36:55.239Z,15.67
2018-07-09T03:37:55.325Z,15.72
2018-07-09T03:38:55.338Z,15.72
2018-07-09T03:39:55.388Z,15.63
2018-07-09T03:40:55.437Z,15.60
2018-07-09T03:41:55.486Z,15.60
2018-07-09T03:42:55.568Z,15.56
2018-07-09T03:43:55.584Z,15.51
2018-07-09T03:44:55.632Z,15.51
2018-07-09T03:45:55.681Z,15.45
2018-07-09T03:46:55.731Z,15.51
2018-07-09T03:47:55.805Z,15.52
2018-07-09T03:48:55.860Z,15.59
2018-07-09T03:49:55.878Z,15.57
2018-07-09T03:50:55.936Z,15.45
2018-07-09T03:51:55.975Z,15.52
2018-07-09T03:52:56.024Z,15.46
2018-07-09T03:53:56.115Z,15.52
2018-07-09T03:54:56.126Z,15.45
2018-07-09T03:55:56.171Z,15.36
2018-07-09T03:56:57.156Z,15.41
2018-07-09T03:57:56.272Z,15.31
2018-07-09T03:58:56.347Z,15.24
2018-07-09T03:59:56.393Z,15.21
2018-07-09T04:00:56.421Z,15.19
2018-07-09T04:01:56.467Z,15.20
2018-07-09T04:02:56.518Z,15.24
2018-07-09T04:03:56.568Z,15.21
2018-07-09T04:04:56.638Z,15.19
2018-07-09T04:05:56.664Z,15.19
2018-07-09T04:06:56.712Z,15.23
2018-07-09T04:07:56.762Z,15.24
2018-07-09T04:08:56.810Z,15.23
2018-07-09T04:09:56.889Z,15.33
2018-07-09T04:10:56.911Z,15.28
2018-07-09T04:11:56.957Z,15.33
2018-07-09T04:12:57.009Z,15.38
2018-07-09T04:13:57.055Z,15.35
2018-07-09T04:14:57.141Z,15.28
2018-07-09T04:15:57.154Z,15.27
2018-07-09T04:16:57.201Z,15.27
2018-07-09T04:17:57.252Z,15.35
2018-07-09T04:18:57.301Z,15.33
2018-07-09T04:19:57.384Z,15.28
2018-07-09T04:20:57.463Z,15.31
2018-07-09T04:21:57.447Z,15.30
2018-07-09T04:22:57.504Z,15.28
2018-07-09T04:23:57.547Z,15.33
2018-07-09T04:24:57.628Z,15.39
2018-07-09T04:25:57.649Z,15.30
2018-07-09T04:26:57.696Z,15.43
2018-07-09T04:27:57.741Z,15.51
2018-07-09T04:28:57.792Z,15.59
2018-07-09T04:29:57.869Z,15.56
2018-07-09T04:30:57.921Z,15.61
2018-07-09T04:31:57.978Z,15.49
2018-07-09T04:32:57.988Z,15.63
2018-07-09T04:33:58.036Z,15.63
2018-07-09T04:34:58.089Z,15.68
2018-07-09T04:35:58.164Z,15.72
2018-07-09T04:36:58.186Z,15.81
2018-07-09T04:37:58.312Z,15.84
2018-07-09T04:38:58.284Z,15.89
2018-07-09T04:39:58.345Z,15.89
2018-07-09T04:40:58.427Z,15.96
2018-07-09T04:41:58.436Z,15.96
2018-07-09T04:42:58.480Z,15.94
2018-07-09T04:43:58.526Z,15.93
2018-07-09T04:44:58.576Z,15.94
2018-07-09T04:45:58.658Z,15.96
2018-07-09T04:46:58.681Z,16.00
2018-07-09T04:47:59.665Z,15.97
2018-07-09T04:48:58.773Z,16.04
2018-07-09T04:49:58.823Z,16.06
2018-07-09T04:50:58.923Z,16.03
2018-07-09T04:51:58.943Z,16.01
2018-07-09T04:52:58.971Z,16.00
2018-07-09T04:53:59.020Z,16.07
2018-07-09T04:54:59.069Z,16.14
2018-07-09T04:55:59.120Z,16.15
2018-07-09T04:56:59.190Z,16.20
2018-07-09T04:57:59.217Z,16.22
2018-07-09T04:58:59.275Z,16.20
2018-07-09T04:59:59.317Z,16.15
2018-07-09T05:00:59.373Z,16.22
2018-07-09T05:01:59.442Z,16.25
2018-07-09T05:02:59.463Z,16.30
2018-07-09T05:03:59.513Z,16.34
2018-07-09T05:04:59.618Z,16.40
2018-07-09T05:05:59.611Z,16.48
2018-07-09T05:06:59.689Z,16.49
2018-07-09T05:07:59.711Z,16.60
2018-07-09T05:08:59.765Z,16.63
2018-07-09T05:09:59.810Z,16.71
2018-07-09T05:10:59.858Z,16.74
2018-07-09T05:11:59.931Z,16.80
2018-07-09T05:13:00.013Z,16.93
2018-07-09T05:14:00.017Z,16.92
2018-07-09T05:15:00.064Z,16.95
2018-07-09T05:16:00.107Z,16.96
2018-07-09T05:17:00.185Z,17.03
2018-07-09T05:18:00.204Z,17.00
2018-07-09T05:19:00.254Z,17.11
2018-07-09T05:20:00.309Z,17.18
2018-07-09T05:21:00.353Z,17.13
2018-07-09T05:22:00.431Z,17.28
2018-07-09T05:23:00.452Z,17.28
2018-07-09T05:24:00.500Z,17.15
2018-07-09T05:25:00.551Z,17.30
2018-07-09T05:26:00.605Z,17.36
2018-07-09T05:27:00.673Z,17.36
2018-07-09T05:28:00.697Z,17.46
2018-07-09T05:29:00.749Z,17.53
2018-07-09T05:30:00.799Z,17.53
2018-07-09T05:31:00.883Z,17.62
2018-07-09T05:32:00.896Z,17.73
2018-07-09T05:33:00.946Z,17.74
2018-07-09T05:34:00.998Z,17.71
2018-07-09T05:35:01.054Z,17.85
2018-07-09T05:36:01.120Z,17.88
2018-07-09T05:37:01.145Z,17.87
2018-07-09T05:38:01.222Z,18.04
2018-07-09T05:39:01.246Z,18.00
2018-07-09T05:40:01.322Z,18.06
2018-07-09T05:41:01.346Z,18.07
2018-07-09T05:42:01.394Z,18.04
2018-07-09T05:43:01.503Z,18.17
2018-07-09T05:44:01.494Z,18.19
2018-07-09T05:45:01.546Z,18.27
2018-07-09T05:46:01.594Z,18.21
2018-07-09T05:47:01.687Z,18.19
2018-07-09T05:48:01.724Z,18.24
2018-07-09T05:49:01.743Z,18.29
2018-07-09T05:50:01.798Z,18.24
2018-07-09T05:51:01.844Z,18.31
2018-07-09T05:52:01.895Z,18.34
2018-07-09T05:53:01.966Z,18.31
2018-07-09T05:54:01.998Z,18.42
2018-07-09T05:55:02.049Z,18.50
2018-07-09T05:56:02.093Z,18.54
2018-07-09T05:57:02.143Z,18.67
2018-07-09T05:58:02.217Z,18.67
2018-07-09T05:59:02.262Z,18.82
2018-07-09T06:00:02.320Z,18.83
2018-07-09T06:01:02.348Z,18.80
2018-07-09T06:02:02.396Z,18.84
2018-07-09T06:03:02.443Z,18.83
2018-07-09T06:04:02.505Z,18.97
2018-07-09T06:05:02.575Z,18.99
2018-07-09T06:06:02.595Z,19.08
2018-07-09T06:07:02.643Z,19.10
2018-07-09T06:08:02.694Z,19.01
2018-07-09T06:09:02.744Z,19.20
2018-07-09T06:10:02.822Z,19.11
2018-07-09T06:11:02.887Z,19.11
2018-07-09T06:12:02.896Z,19.23
2018-07-09T06:13:02.955Z,19.24
2018-07-09T06:14:03.028Z,19.24
2018-07-09T06:15:03.071Z,19.32
2018-07-09T06:16:03.117Z,19.25
2018-07-09T06:17:03.174Z,19.23
2018-07-09T06:18:03.194Z,19.38
2018-07-09T06:19:03.252Z,19.38
2018-07-09T06:20:03.299Z,19.40
2018-07-09T06:21:03.369Z,19.43
2018-07-09T06:22:03.396Z,19.36
2018-07-09T06:23:03.446Z,19.51
2018-07-09T06:24:03.497Z,19.47
2018-07-09T06:25:03.546Z,19.46
2018-07-09T06:26:03.630Z,19.40
2018-07-09T06:27:03.647Z,19.43
2018-07-09T06:28:03.705Z,19.53
2018-07-09T06:29:03.746Z,19.57
2018-07-09T06:30:03.799Z,19.57
2018-07-09T06:31:03.888Z,19.55
2018-07-09T06:32:03.897Z,19.68
2018-07-09T06:33:03.956Z,19.60
2018-07-09T06:34:03.999Z,19.72
2018-07-09T06:35:04.050Z,19.80
2018-07-09T06:36:04.132Z,19.83
2018-07-09T06:37:04.149Z,19.79
2018-07-09T06:38:04.204Z,19.86
2018-07-09T06:39:04.252Z,19.94
2018-07-09T06:40:04.301Z,20.05
2018-07-09T06:41:04.375Z,20.05
2018-07-09T06:42:04.403Z,19.98
2018-07-09T06:43:04.498Z,20.10
2018-07-09T06:44:04.505Z,20.05
2018-07-09T06:45:04.557Z,20.09
2018-07-09T06:46:04.605Z,20.09
2018-07-09T06:47:04.658Z,20.12
2018-07-09T06:48:04.731Z,20.25
2018-07-09T06:49:04.757Z,20.12
2018-07-09T06:50:04.816Z,20.24
2018-07-09T06:51:04.862Z,20.47
2018-07-09T06:52:04.910Z,20.90
2018-07-09T06:53:04.999Z,21.45
2018-07-09T06:54:05.016Z,22.13
2018-07-09T06:55:05.066Z,22.41
2018-07-09T06:56:05.117Z,22.84
2018-07-09T06:57:05.174Z,23.50
2018-07-09T06:58:05.242Z,23.87
2018-07-09T06:59:05.291Z,24.22
2018-07-09T07:00:05.328Z,24.04
2018-07-09T07:01:05.382Z,24.01
2018-07-09T07:02:05.422Z,24.20
2018-07-09T07:03:05.520Z,24.57
2018-07-09T07:04:05.525Z,24.52
2018-07-09T07:05:06.401Z,24.80
2018-07-09T07:06:05.629Z,25.19
2018-07-09T07:07:05.683Z,25.20
2018-07-09T07:08:05.757Z,24.92
2018-07-09T07:09:05.934Z,24.80
2018-07-09T07:10:05.866Z,25.13
2018-07-09T07:11:05.891Z,25.20
2018-07-09T07:12:05.946Z,25.67
2018-07-09T07:13:05.997Z,25.37
2018-07-09T07:14:06.048Z,25.80
2018-07-09T07:15:06.125Z,25.49
2018-07-09T07:16:06.153Z,24.80
2018-07-09T07:17:06.206Z,24.85
2018-07-09T07:18:06.260Z,25.15
2018-07-09T07:19:06.327Z,24.94
2018-07-09T07:20:06.390Z,25.10
2018-07-09T07:21:06.438Z,25.44
2018-07-09T07:22:06.472Z,25.77
2018-07-09T07:23:06.526Z,26.17
2018-07-09T07:24:06.579Z,26.58
2018-07-09T07:25:06.660Z,26.79
2018-07-09T07:26:06.686Z,26.84
2018-07-09T07:27:06.745Z,26.47
2018-07-09T07:28:06.802Z,26.44
2018-07-09T07:29:06.845Z,26.67
2018-07-09T07:30:06.929Z,26.86
2018-07-09T07:31:06.951Z,27.02
2018-07-09T07:32:07.041Z,26.64
2018-07-09T07:33:07.064Z,26.72
2018-07-09T07:34:07.114Z,27.02
2018-07-09T07:35:07.165Z,26.79
2018-07-09T07:36:07.249Z,26.87
2018-07-09T07:37:07.282Z,27.21
2018-07-09T07:38:07.354Z,26.69
2018-07-09T07:39:07.386Z,26.59
2018-07-09T07:40:07.433Z,26.80
2018-07-09T07:41:07.517Z,27.11
2018-07-09T07:42:07.542Z,26.99
2018-07-09T07:43:07.598Z,26.42
2018-07-09T07:44:07.652Z,26.73
2018-07-09T07:45:07.704Z,26.49
2018-07-09T07:46:07.794Z,25.54
2018-07-09T07:47:07.813Z,25.02
2018-07-09T07:48:07.867Z,25.06
2018-07-09T07:49:07.921Z,25.39
2018-07-09T07:50:07.988Z,25.83
2018-07-09T07:51:08.069Z,25.79
2018-07-09T07:52:08.086Z,25.83
2018-07-09T07:53:08.136Z,25.35
2018-07-09T07:54:08.194Z,25.65
2018-07-09T07:55:08.248Z,25.93
2018-07-09T07:56:08.328Z,26.55
2018-07-09T07:57:08.353Z,26.35
2018-07-09T07:58:08.410Z,26.27
2018-07-09T07:59:08.485Z,26.05
2018-07-09T08:00:08.515Z,25.44
2018-07-09T08:01:08.615Z,25.64
2018-07-09T08:02:08.657Z,25.83
2018-07-09T08:03:08.682Z,24.91
2018-07-09T08:04:08.730Z,24.75
2018-07-09T08:05:08.792Z,24.82
2018-07-09T08:06:08.840Z,24.92
2018-07-09T08:07:08.918Z,24.77
2018-07-09T08:08:08.949Z,24.79
2018-07-09T08:09:09.001Z,25.19
2018-07-09T08:10:09.056Z,25.87
2018-07-09T08:11:12.222Z,26.09
2018-07-09T08:13:00.533Z,25.64
2018-07-09T08:13:27.986Z,25.86
2018-07-09T08:14:09.271Z,25.28
2018-07-09T08:15:09.330Z,25.42
2018-07-09T08:16:09.380Z,25.31
2018-07-09T08:17:09.462Z,25.90
2018-07-09T08:18:09.487Z,26.25
2018-07-09T08:19:09.541Z,25.80
2018-07-09T08:20:09.597Z,25.72
2018-07-09T08:21:09.650Z,24.75
2018-07-09T08:22:09.739Z,24.59
2018-07-09T08:23:09.759Z,24.63
2018-07-09T08:24:09.811Z,24.57
2018-07-09T08:25:09.887Z,24.92
2018-07-09T08:26:09.920Z,25.30
2018-07-09T08:27:10.006Z,25.13
2018-07-09T08:28:10.027Z,25.13
2018-07-09T08:29:10.083Z,25.12
2018-07-09T08:30:10.134Z,25.24
2018-07-09T08:31:10.206Z,25.15
2018-07-09T08:32:10.273Z,25.67
2018-07-09T08:33:10.295Z,25.84
2018-07-09T08:34:10.351Z,25.68
2018-07-09T08:35:10.405Z,25.99
2018-07-09T08:36:10.462Z,26.25
2018-07-09T08:37:10.535Z,26.04
2018-07-09T08:38:10.567Z,25.69
2018-07-09T08:39:10.622Z,25.65
2018-07-09T08:40:10.680Z,25.75
2018-07-09T08:41:10.733Z,26.05
2018-07-09T08:42:10.811Z,25.89
2018-07-09T08:43:10.839Z,25.43
2018-07-09T08:44:10.893Z,25.10
2018-07-09T08:45:10.947Z,25.32
2018-07-09T08:46:11.008Z,25.75
2018-07-09T08:47:11.081Z,25.87
2018-07-09T08:48:11.141Z,25.64
2018-07-09T08:49:11.164Z,24.92
2018-07-09T08:50:11.220Z,24.63
2018-07-09T08:51:11.278Z,24.97
2018-07-09T08:52:11.330Z,24.82
2018-07-09T08:53:11.406Z,25.42
2018-07-09T08:54:11.442Z,25.69
2018-07-09T08:55:11.509Z,26.31
2018-07-09T08:56:11.548Z,26.62
2018-07-09T08:57:11.639Z,26.73
2018-07-09T08:58:11.654Z,26.18
2018-07-09T08:59:11.712Z,26.27
2018-07-09T09:00:11.764Z,26.61
2018-07-09T09:01:11.817Z,27.13
2018-07-09T09:02:11.907Z,27.36
2018-07-09T09:03:11.929Z,27.61
2018-07-09T09:04:11.985Z,27.35
2018-07-09T09:05:12.040Z,27.62
2018-07-09T09:06:12.097Z,27.57
2018-07-09T09:07:12.182Z,26.94
2018-07-09T09:08:12.204Z,25.99
2018-07-09T09:09:12.258Z,25.99
2018-07-09T09:10:12.415Z,25.27
2018-07-09T09:11:12.372Z,25.64
2018-07-09T09:12:12.459Z,25.84
2018-07-09T09:13:12.484Z,25.79
2018-07-09T09:14:12.536Z,24.59
2018-07-09T09:15:12.589Z,24.17
2018-07-09T09:16:12.645Z,24.32
2018-07-09T09:17:12.725Z,24.79
2018-07-09T09:18:12.754Z,25.17
2018-07-09T09:19:12.816Z,25.72
2018-07-09T09:20:12.871Z,24.79
2018-07-09T09:21:12.919Z,24.37
2018-07-09T09:22:13.001Z,24.73
2018-07-09T09:23:13.053Z,25.24
2018-07-09T09:24:13.083Z,25.39
2018-07-09T09:25:13.140Z,25.59
2018-07-09T09:26:13.195Z,24.94
2018-07-09T09:27:13.248Z,24.64
2018-07-09T09:28:13.341Z,24.26
2018-07-09T09:29:13.358Z,24.44
2018-07-09T09:30:13.413Z,23.86
2018-07-09T09:31:13.524Z,23.87
2018-07-09T09:32:13.527Z,23.87
2018-07-09T09:33:13.606Z,24.07
2018-07-09T09:34:13.633Z,24.04
2018-07-09T09:35:13.686Z,24.47
2018-07-09T09:36:13.742Z,24.75
2018-07-09T09:37:13.799Z,25.01
2018-07-09T09:38:13.880Z,25.42
2018-07-09T09:39:13.951Z,25.42
2018-07-09T09:40:13.959Z,25.42
2018-07-09T09:41:14.018Z,25.07
2018-07-09T09:42:14.068Z,24.38
2018-07-09T09:43:14.189Z,24.07
2018-07-09T09:44:14.200Z,24.08
2018-07-09T09:45:14.235Z,24.20
2018-07-09T09:46:14.288Z,24.14
2018-07-09T09:47:14.349Z,24.14
2018-07-09T09:48:14.400Z,24.20
2018-07-09T09:49:14.494Z,24.61
2018-07-09T09:50:14.529Z,25.15
2018-07-09T09:51:14.571Z,25.89
2018-07-09T09:52:14.615Z,26.06
2018-07-09T09:53:14.675Z,26.43
2018-07-09T09:54:14.724Z,26.91
2018-07-09T09:55:14.814Z,27.32
2018-07-09T09:56:14.834Z,26.86
2018-07-09T09:57:14.888Z,26.29
2018-07-09T09:58:14.944Z,25.57
2018-07-09T09:59:14.998Z,25.05
2018-07-09T10:00:15.090Z,24.77
2018-07-09T10:01:15.109Z,24.68
2018-07-09T10:02:15.165Z,24.50
2018-07-09T10:03:15.221Z,24.91
2018-07-09T10:04:15.277Z,24.91
2018-07-09T10:05:15.355Z,24.92
2018-07-09T10:06:15.407Z,24.97
2018-07-09T10:07:15.442Z,25.07
2018-07-09T10:08:15.499Z,25.38
2018-07-09T10:09:15.549Z,25.64
2018-07-09T10:10:15.605Z,25.91
2018-07-09T10:11:15.710Z,26.05
2018-07-09T10:12:15.716Z,25.98
2018-07-09T10:13:15.770Z,26.09
2018-07-09T10:14:15.827Z,26.39
2018-07-09T10:15:15.883Z,26.64
2018-07-09T10:16:15.960Z,27.13
2018-07-09T10:17:16.016Z,27.26
2018-07-09T10:18:16.055Z,27.53
2018-07-09T10:19:16.107Z,28.03
2018-07-09T10:20:16.165Z,28.44
2018-07-09T10:21:16.239Z,28.87
2018-07-09T10:22:16.295Z,28.96
2018-07-09T10:23:16.418Z,29.13
2018-07-09T10:24:16.390Z,28.69
2018-07-09T10:25:16.439Z,27.99
2018-07-09T10:26:16.497Z,27.96
2018-07-09T10:27:16.578Z,28.33
2018-07-09T10:28:16.609Z,28.68
2018-07-09T10:29:16.664Z,28.87
2018-07-09T10:30:16.739Z,28.97
2018-07-09T10:31:16.784Z,29.19
2018-07-09T10:32:16.875Z,29.29
2018-07-09T10:33:16.893Z,29.34
2018-07-09T10:34:16.951Z,29.56
2018-07-09T10:35:17.011Z,29.70
2018-07-09T10:36:17.063Z,29.56
2018-07-09T10:37:17.158Z,29.55
2018-07-09T10:38:17.177Z,29.77
2018-07-09T10:39:17.788Z,29.78
2018-07-09T10:40:17.293Z,29.77
2018-07-09T10:41:17.351Z,30.05
2018-07-09T10:42:17.433Z,30.11
2018-07-09T10:43:17.494Z,30.26
2018-07-09T10:44:17.523Z,30.65
2018-07-09T10:45:17.584Z,30.83
2018-07-09T10:46:17.641Z,30.99
2018-07-09T10:47:17.701Z,31.11
2018-07-09T10:48:17.782Z,31.11
2018-07-09T10:49:17.841Z,31.20
2018-07-09T10:50:17.874Z,31.48
2018-07-09T10:51:17.934Z,31.67
2018-07-09T10:52:17.996Z,31.79
2018-07-09T10:53:18.076Z,31.79
2018-07-09T10:54:18.134Z,31.67
2018-07-09T10:55:18.216Z,31.62
2018-07-09T10:56:18.231Z,31.68
2018-07-09T10:57:18.289Z,31.62
2018-07-09T10:58:18.350Z,30.12
2018-07-09T10:59:18.441Z,29.10
2018-07-09T11:00:18.471Z,28.84
2018-07-09T11:01:18.530Z,29.01
2018-07-09T11:02:18.592Z,29.53
2018-07-09T11:03:18.651Z,29.75
2018-07-09T11:04:18.751Z,29.16
2018-07-09T11:05:18.769Z,28.73
2018-07-09T11:06:18.828Z,28.77
2018-07-09T11:07:18.890Z,28.25
2018-07-09T11:08:18.945Z,27.54
2018-07-09T11:09:19.038Z,27.36
2018-07-09T11:10:19.066Z,27.92
2018-07-09T11:11:19.124Z,28.33
2018-07-09T11:12:19.183Z,28.78
2018-07-09T11:13:19.239Z,28.46
2018-07-09T11:14:19.328Z,28.81
2018-07-09T11:15:19.385Z,28.87
2018-07-09T11:16:19.476Z,27.98
2018-07-09T11:17:19.473Z,27.29
2018-07-09T11:18:19.534Z,27.67
2018-07-09T11:19:19.591Z,27.89
2018-07-09T11:20:19.685Z,27.86
2018-07-09T11:21:19.707Z,28.01
2018-07-09T11:22:19.764Z,28.47
2018-07-09T11:23:19.824Z,28.82
2018-07-09T11:24:19.882Z,28.87
2018-07-09T11:25:19.968Z,28.68
2018-07-09T11:26:19.997Z,28.73
2018-07-09T11:27:20.057Z,28.82
2018-07-09T11:28:20.112Z,28.96
2018-07-09T11:29:20.209Z,29.11
2018-07-09T11:30:20.254Z,29.49
2018-07-09T11:31:20.312Z,29.70
2018-07-09T11:32:20.342Z,29.79
2018-07-09T11:33:20.402Z,29.56
2018-07-09T11:34:20.461Z,29.56
2018-07-09T11:35:20.517Z,29.60
2018-07-09T11:36:20.657Z,29.86
2018-07-09T11:37:20.633Z,30.05
2018-07-09T11:38:20.711Z,30.18
2018-07-09T11:39:20.751Z,30.40
2018-07-09T11:40:20.810Z,30.34
2018-07-09T11:41:20.896Z,30.26
2018-07-09T11:42:20.926Z,30.43
2018-07-09T11:43:20.987Z,30.68
2018-07-09T11:44:21.045Z,29.77
2018-07-09T11:45:21.104Z,29.23
2018-07-09T11:46:21.189Z,28.29
2018-07-09T11:47:21.221Z,28.10
2018-07-09T11:48:21.283Z,28.33
2018-07-09T11:49:21.341Z,28.88
2018-07-09T11:50:21.397Z,29.11
2018-07-09T11:51:21.495Z,29.38
2018-07-09T11:52:21.515Z,29.70
2018-07-09T11:53:21.576Z,30.11
2018-07-09T11:54:21.636Z,30.47
2018-07-09T11:55:21.696Z,30.76
2018-07-09T11:56:21.774Z,31.04
2018-07-09T11:57:21.812Z,30.80
2018-07-09T11:58:21.892Z,30.76
2018-07-09T11:59:21.933Z,30.72
2018-07-09T12:00:21.989Z,30.78
2018-07-09T12:01:22.051Z,30.75
2018-07-09T12:02:22.109Z,30.78
2018-07-09T12:03:22.191Z,30.93
2018-07-09T12:04:22.259Z,31.12
2018-07-09T12:05:22.291Z,31.15
2018-07-09T12:06:22.346Z,31.21
2018-07-09T12:07:22.415Z,31.30
2018-07-09T12:08:22.467Z,31.39
2018-07-09T12:09:22.564Z,31.26
2018-07-09T12:10:22.588Z,31.46
2018-07-09T12:11:22.702Z,31.61
2018-07-09T12:12:22.709Z,30.74
2018-07-09T12:13:22.767Z,30.52
2018-07-09T12:14:22.860Z,30.78
2018-07-09T12:15:22.891Z,30.89
2018-07-09T12:16:22.949Z,30.81
2018-07-09T12:17:23.010Z,30.84
2018-07-09T12:18:23.072Z,30.31
2018-07-09T12:19:23.165Z,30.59
2018-07-09T12:20:23.192Z,30.81
2018-07-09T12:21:23.256Z,31.04
2018-07-09T12:22:23.314Z,31.23
2018-07-09T12:23:23.376Z,31.15
2018-07-09T12:24:23.460Z,31.01
2018-07-09T12:25:23.519Z,31.11
2018-07-09T12:26:23.558Z,31.20
2018-07-09T12:27:23.617Z,31.20
2018-07-09T12:28:23.681Z,30.80
2018-07-09T12:29:23.744Z,30.84
2018-07-09T12:30:23.823Z,31.02
2018-07-09T12:31:23.861Z,31.27
2018-07-09T12:32:23.923Z,31.39
2018-07-09T12:33:23.983Z,31.60
2018-07-09T12:34:24.052Z,31.82
2018-07-09T12:35:24.133Z,31.65
2018-07-09T12:36:24.281Z,31.50
2018-07-09T12:37:24.246Z,31.20
2018-07-09T12:38:24.289Z,30.78
2018-07-09T12:39:24.351Z,30.78
2018-07-09T12:40:24.510Z,30.53
2018-07-09T12:41:24.473Z,30.81
2018-07-09T12:42:24.532Z,30.93
2018-07-09T12:43:24.593Z,31.01
2018-07-09T12:44:24.656Z,31.26
2018-07-09T12:45:24.741Z,31.33
2018-07-09T12:46:24.925Z,31.58
2018-07-09T12:47:24.840Z,31.76
2018-07-09T12:48:24.926Z,31.75
2018-07-09T12:49:24.963Z,31.87
2018-07-09T12:50:25.019Z,31.88
2018-07-09T12:51:25.115Z,31.15
2018-07-09T12:52:25.254Z,31.05
2018-07-09T12:53:25.210Z,30.91